Lusaka, Zambia
Current Conditions -  °F | °C
As of 12:00 PM on Thursday 30 Oct 2014 (Local Time) from FLSK Reporting Station
Clear Clear  
Wind Chill: 90°   Ceiling: Unl
Heat Index: 90°   Visibility: 6mi
Dew Point: 54°   Wind: 8mph
Humidity: 29%   Direction: 80°E
Pressure: 30.03"   Gusts: NA
Location:  15.42°S, 28.29°E
Report Text: FLSK 301000Z 08007KT CAVOK 32/12 Q1017
Loading
Personal Weather Stations






























Interactive Weather Map
Tropical Storm Tracking
New forecast layout! Learn more

10-Day Weather Forecast

Advertisements
Track Severe Weather on mobile